Time;durP1;ratioP1;P1;durP2;ratioP2;P2;SDS_P1;SDS_P2;PMS_P1;PMS_P2;Temp;Humidity;BMP_temperature;BMP_pressure;BME280_temperature;BME280_humidity;BME280_pressure;Samples;Min_cycle;Max_cycle;Signal;HPM_P1;HPM_P2
2020/12/13 00:01:27;;;;;;;42.33;24.87;;;10.10;99.90;;;;;;4936510;29;20191;-77
2020/12/13 00:03:53;;;;;;;44.00;23.80;;;10.20;99.90;;;;;;4936459;29;20195;-79
2020/12/13 00:06:18;;;;;;;44.43;22.37;;;10.10;99.90;;;;;;4936461;29;20473;-80
2020/12/13 00:08:44;;;;;;;49.47;25.33;;;10.10;99.90;;;;;;4936252;29;20261;-79
2020/12/13 00:11:09;;;;;;;46.47;26.10;;;10.10;99.90;;;;;;4936457;29;20191;-80
2020/12/13 00:13:35;;;;;;;50.13;24.50;;;10.10;99.90;;;;;;4936144;29;20642;-76
2020/12/13 00:16:00;;;;;;;44.90;26.20;;;10.10;99.90;;;;;;4936276;29;20215;-77
2020/12/13 00:18:26;;;;;;;55.87;27.90;;;10.10;99.90;;;;;;4936319;29;20661;-77
2020/12/13 00:24:13;;;;;;;51.37;25.53;;;10.10;99.90;;;;;;4936149;29;20206;-78
2020/12/13 00:26:41;;;;;;;52.87;26.73;;;10.10;99.90;;;;;;4936001;29;20926;-78
2020/12/13 00:29:06;;;;;;;48.90;23.87;;;10.10;99.90;;;;;;4936019;29;20187;-78
2020/12/13 00:31:32;;;;;;;45.40;24.03;;;10.10;99.90;;;;;;4936302;29;20486;-78
2020/12/13 00:33:57;;;;;;;52.03;25.17;;;10.10;99.90;;;;;;4936322;29;20213;-77
2020/12/13 00:36:23;;;;;;;56.83;25.97;;;10.10;99.90;;;;;;4936196;29;20218;-78
2020/12/13 00:38:50;;;;;;;54.23;26.23;;;10.10;99.90;;;;;;4936186;29;20175;-78
2020/12/13 00:41:15;;;;;;;48.00;25.47;;;10.00;99.90;;;;;;4935821;29;20183;-78
2020/12/13 00:43:41;;;;;;;57.13;26.40;;;10.10;99.90;;;;;;4936266;29;20563;-78
2020/12/13 00:46:06;;;;;;;52.87;23.70;;;10.10;99.90;;;;;;4936209;29;20615;-77
2020/12/13 00:48:32;;;;;;;47.00;25.73;;;10.10;99.90;;;;;;4935867;29;20631;-77
2020/12/13 00:50:57;;;;;;;47.07;23.27;;;10.10;99.90;;;;;;4935871;29;20258;-77
2020/12/13 00:53:23;;;;;;;51.83;26.67;;;10.10;99.90;;;;;;4936064;29;20536;-76
2020/12/13 00:55:48;;;;;;;49.67;25.43;;;10.10;99.90;;;;;;4936137;29;20203;-81
2020/12/13 00:58:14;;;;;;;57.47;25.43;;;10.10;99.90;;;;;;4936354;29;20691;-79
2020/12/13 01:00:40;;;;;;;56.00;23.90;;;10.10;99.90;;;;;;4936118;29;20210;-85
2020/12/13 01:03:05;;;;;;;50.23;23.03;;;10.10;99.90;;;;;;4935691;29;20186;-78
2020/12/13 01:05:31;;;;;;;52.00;25.13;;;10.10;99.90;;;;;;4935950;29;20179;-79
2020/12/13 01:07:56;;;;;;;47.97;25.20;;;10.10;99.90;;;;;;4936027;29;20176;-79
2020/12/13 01:10:22;;;;;;;49.17;25.70;;;10.10;99.90;;;;;;4937883;29;20175;-77
2020/12/13 01:12:48;;;;;;;47.17;22.67;;;10.20;99.90;;;;;;4939574;29;20669;-78
2020/12/13 01:15:14;;;;;;;43.07;24.90;;;10.20;99.90;;;;;;4939420;29;20579;-78
2020/12/13 01:21:02;;;;;;;38.90;22.17;;;10.10;99.90;;;;;;4939135;29;20474;-76
2020/12/13 01:23:27;;;;;;;44.03;22.40;;;10.20;99.90;;;;;;4938975;29;20415;-76
2020/12/13 01:25:53;;;;;;;42.63;22.03;;;10.20;99.90;;;;;;4939299;29;20176;-76
2020/12/13 01:28:18;;;;;;;47.57;23.10;;;10.20;99.90;;;;;;4939006;29;20633;-74
2020/12/13 01:30:44;;;;;;;51.13;23.57;;;10.10;99.90;;;;;;4938901;29;20186;-73
2020/12/13 01:33:09;;;;;;;48.73;24.40;;;10.10;99.90;;;;;;4939033;29;20210;-74
2020/12/13 01:35:35;;;;;;;44.67;22.27;;;10.00;99.90;;;;;;4939079;29;20219;-74
2020/12/13 01:38:00;;;;;;;53.40;25.07;;;10.10;99.90;;;;;;4939066;29;20234;-74
2020/12/13 01:40:26;;;;;;;56.37;25.20;;;10.00;99.90;;;;;;4938773;29;20179;-73
2020/12/13 01:42:51;;;;;;;50.43;25.90;;;10.00;99.90;;;;;;4938574;29;20596;-74
2020/12/13 01:45:18;;;;;;;52.60;26.40;;;10.00;99.90;;;;;;4938653;29;20539;-74
2020/12/13 01:47:46;;;;;;;46.90;24.73;;;10.00;99.90;;;;;;4938915;29;20183;-73
2020/12/13 01:50:25;;;;;;;55.67;26.57;;;10.00;99.90;;;;;;4939734;29;20843;-76
2020/12/13 01:53:12;;;;;;;53.00;25.47;;;10.00;99.90;;;;;;4938938;29;20415;-77
2020/12/13 01:55:38;;;;;;;71.53;27.97;;;10.00;99.90;;;;;;4938317;29;20422;-78
2020/12/13 01:58:05;;;;;;;64.33;27.90;;;10.00;99.90;;;;;;4938687;29;20482;-78
2020/12/13 02:00:31;;;;;;;48.23;25.97;;;10.00;99.90;;;;;;4938610;29;20438;-78
2020/12/13 02:03:00;;;;;;;58.90;28.93;;;10.10;99.90;;;;;;4938570;29;20796;-79
2020/12/13 02:05:27;;;;;;;49.30;26.30;;;10.10;99.90;;;;;;4938511;29;20490;-76
2020/12/13 02:07:55;;;;;;;54.53;27.70;;;10.10;99.90;;;;;;4938460;29;20431;-76
2020/12/13 06:30:37;;;;;;;48.37;27.03;;;10.20;99.90;;;;;;5960769;23;20420;-83
2020/12/13 06:33:03;;;;;;;55.10;27.87;;;10.20;99.90;;;;;;4841487;29;20489;-85
2020/12/13 06:35:28;;;;;;;49.90;28.93;;;10.20;99.90;;;;;;4843374;29;20424;-84
2020/12/13 06:41:18;;;;;;;57.33;28.53;;;10.20;99.90;;;;;;4963327;28;20166;-78
2020/12/13 06:47:23;;;;;;;55.57;29.37;;;10.20;99.90;;;;;;4956867;29;20406;-82
2020/12/13 06:49:49;;;;;;;51.03;28.23;;;10.20;99.90;;;;;;4956972;28;20442;-76
2020/12/13 06:52:25;;;;;;;47.00;28.40;;;10.20;99.90;;;;;;4956915;28;20855;-75
2020/12/13 06:54:51;;;;;;;63.33;28.03;;;10.20;99.90;;;;;;4956888;28;20460;-75
2020/12/13 06:57:17;;;;;;;50.80;28.20;;;10.20;99.90;;;;;;4956566;29;20497;-75
2020/12/13 06:59:44;;;;;;;48.83;27.83;;;10.20;99.90;;;;;;4956498;29;20186;-83
2020/12/13 07:02:10;;;;;;;44.07;25.37;;;10.20;99.90;;;;;;4956587;28;20434;-74
2020/12/13 07:04:38;;;;;;;48.43;26.17;;;10.20;99.90;;;;;;4956739;28;20437;-74
2020/12/13 07:07:16;;;;;;;53.53;27.33;;;10.20;99.90;;;;;;4956276;28;20676;-74
2020/12/13 07:09:41;;;;;;;57.90;29.20;;;10.20;99.90;;;;;;4956585;28;20402;-74
2020/12/13 07:12:08;;;;;;;55.50;29.63;;;10.20;99.90;;;;;;4956212;29;20484;-82
2020/12/13 07:17:57;;;;;;;48.63;26.80;;;10.20;99.90;;;;;;4956463;29;20465;-77
2020/12/13 07:23:44;;;;;;;51.83;28.47;;;10.20;99.90;;;;;;4956067;29;20465;-78
2020/12/13 07:26:27;;;;;;;52.53;30.10;;;10.20;99.90;;;;;;5089988;27;20575;-73
2020/12/13 07:28:54;;;;;;;48.40;24.53;;;10.30;99.90;;;;;;5089789;28;20432;-73
2020/12/13 07:31:20;;;;;;;54.43;27.73;;;10.30;99.90;;;;;;5089615;28;20428;-74
2020/12/13 07:33:46;;;;;;;56.13;28.13;;;10.20;99.90;;;;;;5089852;28;20480;-74
2020/12/13 07:36:12;;;;;;;57.80;28.70;;;10.20;99.90;;;;;;5089686;28;20220;-73
2020/12/13 07:38:41;;;;;;;51.10;28.13;;;10.20;99.90;;;;;;5089491;28;20934;-73
2020/12/13 07:41:18;;;;;;;52.77;28.00;;;10.20;99.90;;;;;;5089461;28;20185;-72
2020/12/13 07:44:08;;;;;;;52.08;29.55;;;10.20;99.90;;;;;;5088151;28;20834;-74
2020/12/13 07:46:35;;;;;;;50.57;27.10;;;10.40;99.90;;;;;;5089253;28;20597;-74
2020/12/13 07:49:17;;;;;;;44.97;23.20;;;10.60;99.90;;;;;;5089518;28;20849;-74
2020/12/13 07:51:44;;;;;;;48.27;25.67;;;10.60;99.90;;;;;;5088364;28;20427;-75
2020/12/13 07:54:34;;;;;;;46.93;23.97;;;10.70;99.90;;;;;;5089838;28;20506;-74
2020/12/13 07:57:11;;;;;;;43.27;25.53;;;10.60;99.90;;;;;;5089779;28;20829;-75
2020/12/13 07:59:36;;;;;;;44.70;24.07;;;10.60;99.90;;;;;;5089817;28;20937;-74
2020/12/13 08:02:02;;;;;;;41.83;24.30;;;10.50;99.90;;;;;;5090142;28;20420;-74
2020/12/13 08:04:35;;;;;;;43.10;23.87;;;10.50;99.90;;;;;;5089909;28;20267;-74
2020/12/13 08:07:03;;;;;;;43.10;21.80;;;10.50;99.90;;;;;;5090060;28;20178;-74
2020/12/13 08:09:28;;;;;;;38.27;22.90;;;10.50;99.90;;;;;;5089832;28;20423;-75
2020/12/13 08:11:54;;;;;;;45.33;24.57;;;10.40;99.90;;;;;;5089869;28;20431;-74
2020/12/13 08:14:22;;;;;;;43.17;24.20;;;10.40;99.90;;;;;;5089800;28;20169;-74
2020/12/13 08:16:51;;;;;;;40.87;23.10;;;10.40;99.90;;;;;;5089864;28;20202;-74
2020/12/13 08:19:22;;;;;;;40.93;23.20;;;10.40;99.90;;;;;;5089705;28;20835;-74
2020/12/13 08:22:28;;;;;;;47.47;23.10;;;10.40;99.90;;;;;;5089793;28;20595;-76
2020/12/13 08:24:57;;;;;;;44.33;23.33;;;10.40;99.90;;;;;;5077067;28;20471;-75
2020/12/13 08:27:23;;;;;;;45.53;25.83;;;10.30;99.90;;;;;;5089490;28;20427;-75
2020/12/13 08:29:51;;;;;;;43.77;23.43;;;10.30;99.90;;;;;;5090058;28;20428;-75
2020/12/13 08:32:21;;;;;;;42.73;24.00;;;10.40;99.90;;;;;;5090642;28;20430;-75
2020/12/13 08:34:47;;;;;;;42.87;24.60;;;10.30;99.90;;;;;;5090459;28;20804;-76
2020/12/13 08:37:12;;;;;;;41.17;22.40;;;10.30;99.90;;;;;;5086250;28;20503;-77
2020/12/13 08:39:38;;;;;;;41.00;24.60;;;10.40;99.90;;;;;;5076955;28;20584;-77
2020/12/13 08:42:06;;;;;;;41.03;21.07;;;10.40;99.90;;;;;;5075432;28;20181;-78
2020/12/13 08:44:37;;;;;;;39.13;21.37;;;10.40;99.90;;;;;;5075432;28;20202;-77
2020/12/13 08:47:08;;;;;;;35.47;20.43;;;10.30;99.90;;;;;;5075850;28;20459;-77
2020/12/13 08:49:37;;;;;;;37.20;21.20;;;10.30;99.90;;;;;;5075218;28;20412;-82
2020/12/13 08:52:22;;;;;;;31.27;19.77;;;10.20;99.90;;;;;;5075583;28;20436;-76
2020/12/13 08:54:49;;;;;;;37.73;18.70;;;10.30;99.90;;;;;;5075899;28;21055;-74
2020/12/13 08:57:31;;;;;;;36.40;21.03;;;10.30;99.90;;;;;;5075292;28;20830;-84
2020/12/13 08:59:57;;;;;;;36.10;21.10;;;10.40;99.90;;;;;;5075200;28;20463;-77
2020/12/13 09:02:22;;;;;;;37.10;20.33;;;10.50;99.90;;;;;;5075500;28;20504;-76
2020/12/13 09:04:54;;;;;;;36.47;22.77;;;10.50;99.90;;;;;;5075028;28;20532;-77
2020/12/13 09:07:21;;;;;;;36.47;21.17;;;10.60;99.90;;;;;;5074844;28;20252;-80
2020/12/13 09:09:47;;;;;;;35.50;23.80;;;10.50;99.90;;;;;;5074960;28;20507;-80
2020/12/13 09:12:20;;;;;;;41.90;23.40;;;10.60;99.90;;;;;;5074299;28;20468;-69
2020/12/13 09:14:46;;;;;;;42.47;21.67;;;10.70;99.90;;;;;;5074646;28;20582;-69
2020/12/13 09:17:21;;;;;;;37.23;22.10;;;10.90;99.90;;;;;;5073239;28;20435;-69
2020/12/13 09:19:51;;;;;;;31.97;21.43;;;11.00;99.90;;;;;;5073948;28;20416;-69
2020/12/13 09:22:22;;;;;;;38.23;21.50;;;11.20;99.90;;;;;;5071177;28;20432;-70
2020/12/13 09:24:48;;;;;;;34.07;21.23;;;11.20;99.90;;;;;;5073835;28;20465;-70
2020/12/13 09:27:19;;;;;;;33.10;20.03;;;11.30;99.90;;;;;;5073883;28;20428;-72
2020/12/13 09:29:46;;;;;;;32.97;22.20;;;11.20;99.90;;;;;;5073904;28;20923;-70
2020/12/13 09:32:12;;;;;;;32.73;20.70;;;11.10;99.90;;;;;;5073508;28;20440;-71
2020/12/13 09:34:38;;;;;;;34.00;21.97;;;10.90;99.90;;;;;;5073793;28;20520;-72
2020/12/13 09:37:04;;;;;;;39.43;21.90;;;10.80;99.90;;;;;;5073884;28;20461;-73
2020/12/13 09:39:30;;;;;;;35.63;22.10;;;10.60;99.90;;;;;;5073773;28;20513;-72
2020/12/13 09:41:57;;;;;;;38.30;22.73;;;10.40;99.90;;;;;;5073057;28;20437;-72
2020/12/13 09:44:23;;;;;;;34.20;19.90;;;10.40;99.90;;;;;;5073741;28;20460;-72
2020/12/13 09:46:53;;;;;;;31.67;20.93;;;10.30;99.90;;;;;;5073834;28;20503;-71
2020/12/13 09:49:19;;;;;;;28.73;18.87;;;10.30;99.90;;;;;;5072771;28;20749;-73
2020/12/13 09:51:44;;;;;;;35.47;21.30;;;10.20;99.90;;;;;;5074549;28;20485;-73
2020/12/13 09:54:10;;;;;;;36.10;21.53;;;10.10;99.90;;;;;;5078984;28;20184;-75
2020/12/13 09:56:35;;;;;;;32.23;19.97;;;10.10;99.90;;;;;;5076243;28;20190;-73
2020/12/13 09:59:01;;;;;;;35.97;18.17;;;10.10;99.90;;;;;;5074486;28;20205;-73
2020/12/13 10:01:26;;;;;;;32.90;18.83;;;10.10;99.90;;;;;;5073615;28;20247;-72
2020/12/13 10:03:54;;;;;;;31.27;18.07;;;10.10;99.90;;;;;;5073922;28;20198;-73
2020/12/13 10:09:02;;;;;;;30.00;18.37;;;10.00;99.90;;;;;;5073747;28;20421;-72
2020/12/13 10:11:29;;;;;;;32.13;17.17;;;10.00;99.90;;;;;;5073685;28;20599;-72
2020/12/13 10:13:55;;;;;;;29.20;16.93;;;10.00;99.90;;;;;;5073542;28;20416;-72
2020/12/13 10:16:21;;;;;;;22.60;16.93;;;10.00;99.90;;;;;;5073411;28;20909;-73
2020/12/13 10:18:46;;;;;;;37.20;15.90;;;9.90;99.90;;;;;;5073687;28;20463;-72
2020/12/13 10:21:12;;;;;;;24.60;16.27;;;9.90;99.90;;;;;;5073312;28;20178;-75
2020/12/13 10:23:38;;;;;;;24.53;15.60;;;9.90;99.90;;;;;;5073333;28;20178;-77
2020/12/13 10:26:03;;;;;;;23.00;15.30;;;9.90;99.90;;;;;;5072901;28;20230;-77
2020/12/13 10:28:29;;;;;;;24.70;16.60;;;9.80;99.90;;;;;;5073045;28;20690;-77
2020/12/13 10:30:54;;;;;;;35.97;17.97;;;9.90;99.90;;;;;;5072850;28;20181;-75
2020/12/13 10:33:20;;;;;;;31.30;17.33;;;9.80;99.90;;;;;;5072846;28;20170;-75
2020/12/13 10:35:46;;;;;;;33.27;16.97;;;9.90;99.90;;;;;;5071850;28;20177;-75
2020/12/13 10:38:12;;;;;;;31.13;16.70;;;9.80;99.90;;;;;;5073017;28;20273;-74
2020/12/13 10:40:39;;;;;;;27.57;17.40;;;9.80;99.90;;;;;;5072971;28;20583;-72
2020/12/13 10:43:05;;;;;;;26.73;16.20;;;9.80;99.90;;;;;;5072989;28;20766;-73
2020/12/13 10:45:31;;;;;;;25.43;15.90;;;9.70;99.90;;;;;;5072685;28;20551;-73
2020/12/13 10:47:57;;;;;;;32.23;15.20;;;9.70;99.90;;;;;;5072683;28;20779;-71
2020/12/13 10:50:23;;;;;;;26.20;17.00;;;9.70;99.90;;;;;;5072389;28;20439;-71
2020/12/13 10:52:48;;;;;;;26.30;16.23;;;9.70;99.90;;;;;;5072499;28;20170;-72
2020/12/13 10:55:16;;;;;;;24.23;15.77;;;9.70;99.90;;;;;;5072190;28;20721;-72
2020/12/13 10:57:42;;;;;;;29.97;17.13;;;9.70;99.90;;;;;;5072615;28;20227;-72
2020/12/13 11:00:10;;;;;;;25.67;14.40;;;9.70;99.90;;;;;;5072305;28;20430;-71
2020/12/13 11:02:35;;;;;;;27.20;15.07;;;9.70;99.90;;;;;;5072375;28;20508;-71
2020/12/13 11:05:01;;;;;;;25.77;14.20;;;9.80;99.90;;;;;;5072156;28;20551;-71
2020/12/13 11:07:26;;;;;;;21.83;13.20;;;9.70;99.90;;;;;;5072662;28;20522;-72
2020/12/13 11:09:52;;;;;;;24.30;14.10;;;9.70;99.90;;;;;;5071993;28;20185;-72
2020/12/13 11:12:18;;;;;;;26.77;15.27;;;9.70;99.90;;;;;;5072074;28;20247;-72
2020/12/13 11:14:43;;;;;;;19.17;13.87;;;9.70;99.90;;;;;;5072261;28;20684;-71
2020/12/13 11:17:09;;;;;;;25.03;16.00;;;9.80;99.90;;;;;;5071802;28;20432;-71
2020/12/13 11:19:35;;;;;;;23.43;14.90;;;9.80;99.90;;;;;;5072014;28;20178;-72
2020/12/13 11:22:00;;;;;;;22.50;14.93;;;9.80;99.90;;;;;;5072307;28;20585;-72
2020/12/13 11:24:26;;;;;;;22.57;13.80;;;9.80;99.90;;;;;;5071905;28;20230;-72
2020/12/13 11:26:51;;;;;;;22.47;13.50;;;9.80;99.90;;;;;;5072092;28;20542;-76
2020/12/13 11:29:17;;;;;;;25.37;13.20;;;9.90;99.90;;;;;;5071654;28;20182;-77
2020/12/13 11:31:42;;;;;;;35.63;15.53;;;9.90;99.90;;;;;;5071799;28;20200;-76
2020/12/13 11:34:08;;;;;;;19.80;13.23;;;9.90;99.90;;;;;;5071675;28;20728;-79
2020/12/13 11:36:34;;;;;;;20.73;13.07;;;9.80;99.90;;;;;;5071657;28;20541;-78
2020/12/13 11:38:59;;;;;;;29.13;15.27;;;9.90;99.90;;;;;;5072075;28;20176;-79
2020/12/13 11:41:26;;;;;;;20.47;12.73;;;9.80;99.90;;;;;;5072073;28;20592;-75
2020/12/13 11:43:52;;;;;;;22.23;11.87;;;9.90;99.90;;;;;;5071899;28;20316;-76
2020/12/13 11:46:17;;;;;;;20.57;13.30;;;9.90;99.90;;;;;;5071727;28;20571;-74
2020/12/13 11:48:43;;;;;;;24.10;11.83;;;9.80;99.90;;;;;;5072005;28;20171;-74
2020/12/13 11:51:09;;;;;;;19.77;11.80;;;9.80;99.90;;;;;;5071858;28;20186;-72
2020/12/13 11:53:34;;;;;;;14.47;10.60;;;9.80;99.90;;;;;;5071798;28;20178;-72
2020/12/13 11:56:00;;;;;;;25.50;12.50;;;9.90;99.90;;;;;;5071948;28;20541;-74
2020/12/13 11:58:25;;;;;;;16.53;10.73;;;9.80;99.90;;;;;;5071483;28;20190;-76
2020/12/13 12:00:51;;;;;;;20.03;12.03;;;9.80;99.90;;;;;;5071616;28;20178;-73
2020/12/13 12:03:16;;;;;;;17.67;12.13;;;9.90;99.90;;;;;;5071762;28;20182;-74
2020/12/13 12:05:42;;;;;;;20.43;11.30;;;9.90;99.90;;;;;;5071664;28;20228;-73
2020/12/13 12:08:07;;;;;;;28.90;11.53;;;9.90;99.90;;;;;;5071735;28;20224;-72
2020/12/13 12:10:33;;;;;;;23.93;13.40;;;9.90;99.90;;;;;;5071717;28;20232;-72
2020/12/13 12:12:58;;;;;;;19.40;10.90;;;9.90;99.90;;;;;;5075025;28;20170;-72
2020/12/13 12:15:24;;;;;;;19.83;9.33;;;9.90;99.90;;;;;;5075452;28;20225;-72
2020/12/13 12:17:49;;;;;;;12.57;9.50;;;10.00;99.90;;;;;;5075364;28;20686;-72
2020/12/13 12:20:18;;;;;;;15.93;10.40;;;9.90;99.90;;;;;;5075288;28;20178;-71
2020/12/13 12:22:47;;;;;;;14.87;9.70;;;9.90;99.90;;;;;;5075345;28;20162;-71
2020/12/13 12:25:13;;;;;;;12.43;9.30;;;10.00;99.90;;;;;;5074758;28;20484;-71
2020/12/13 12:27:39;;;;;;;15.13;9.50;;;10.00;99.90;;;;;;5075275;28;20520;-72
2020/12/13 12:30:08;;;;;;;17.27;10.67;;;10.00;99.90;;;;;;5075117;28;20558;-72
2020/12/13 12:32:33;;;;;;;14.23;8.07;;;10.10;99.90;;;;;;5074860;28;20193;-71
2020/12/13 12:34:59;;;;;;;10.07;7.60;;;10.00;99.90;;;;;;5074601;28;20939;-72
2020/12/13 12:37:26;;;;;;;14.03;8.17;;;10.10;99.90;;;;;;5074607;28;20175;-72
2020/12/13 12:39:51;;;;;;;15.10;8.40;;;10.10;99.90;;;;;;5074760;28;20178;-72
2020/12/13 12:42:17;;;;;;;13.43;8.37;;;10.20;99.90;;;;;;5074892;28;20443;-72
2020/12/13 12:44:45;;;;;;;16.97;9.43;;;10.20;99.90;;;;;;5074899;28;20225;-71
2020/12/13 12:47:11;;;;;;;13.90;7.83;;;10.20;99.90;;;;;;5073353;28;20261;-72
2020/12/13 12:49:36;;;;;;;14.93;9.10;;;10.20;99.90;;;;;;5074369;28;21024;-72
2020/12/13 12:52:02;;;;;;;15.47;7.70;;;10.20;99.90;;;;;;5074659;28;20435;-71
2020/12/13 12:54:28;;;;;;;9.17;7.83;;;10.20;99.90;;;;;;5074766;28;20182;-72
2020/12/13 12:56:54;;;;;;;12.20;7.50;;;10.30;99.90;;;;;;5074660;28;20494;-71
2020/12/13 12:59:33;;;;;;;17.13;7.87;;;10.30;99.90;;;;;;5074639;28;20186;-71
2020/12/13 13:02:01;;;;;;;16.27;7.87;;;10.30;99.90;;;;;;5074537;28;20182;-71
2020/12/13 13:04:32;;;;;;;10.80;8.10;;;10.30;99.90;;;;;;5074545;28;20543;-71
2020/12/13 13:11:58;;;;;;;14.37;7.50;;;10.10;99.90;;;;;;5073925;28;20449;-72
2020/12/13 13:14:23;;;;;;;10.47;8.00;;;10.10;99.90;;;;;;5074223;28;20420;-74
2020/12/13 13:16:58;;;;;;;11.97;6.90;;;10.10;99.90;;;;;;5074404;28;20209;-73
2020/12/13 13:19:24;;;;;;;10.50;6.07;;;10.20;99.90;;;;;;5074321;28;20174;-72
2020/12/13 13:21:49;;;;;;;9.67;6.70;;;10.30;99.90;;;;;;5074231;28;20416;-72
2020/12/13 13:24:15;;;;;;;7.37;5.70;;;10.30;99.90;;;;;;5073745;28;20171;-73
2020/12/13 13:26:41;;;;;;;8.13;5.80;;;10.30;99.90;;;;;;5074187;28;20174;-72
2020/12/13 13:29:07;;;;;;;5.93;4.80;;;10.30;99.90;;;;;;5074035;28;20626;-72
2020/12/13 13:31:33;;;;;;;7.93;5.70;;;10.30;99.90;;;;;;5073877;28;20429;-73
2020/12/13 13:33:58;;;;;;;10.17;6.60;;;10.40;99.90;;;;;;5073967;28;20224;-72
2020/12/13 13:36:25;;;;;;;11.00;4.97;;;10.40;99.90;;;;;;5074125;28;20174;-72
2020/12/13 13:38:51;;;;;;;10.80;5.83;;;10.40;99.90;;;;;;5073986;28;20178;-72
2020/12/13 13:41:25;;;;;;;10.33;6.10;;;10.50;99.90;;;;;;5073842;28;20479;-73
2020/12/13 13:43:57;;;;;;;7.27;4.50;;;10.40;99.90;;;;;;5073833;28;20476;-75
2020/12/13 13:51:38;;;;;;;7.60;5.80;;;10.50;99.90;;;;;;5073954;28;20428;-72
2020/12/13 13:54:10;;;;;;;8.60;4.97;;;10.60;99.90;;;;;;5073512;28;20771;-72
2020/12/13 13:59:22;;;;;;;9.00;5.40;;;10.50;99.90;;;;;;5073438;28;20735;-72
2020/12/13 14:01:47;;;;;;;7.60;4.57;;;10.40;99.90;;;;;;5073478;28;20428;-71
2020/12/13 14:04:13;;;;;;;8.03;5.00;;;10.40;99.90;;;;;;5073104;28;20934;-71
2020/12/13 14:07:20;;;;;;;7.57;4.87;;;10.50;99.90;;;;;;5073656;28;20599;-71
2020/12/13 14:09:39;;;;;;;9.20;5.30;;;10.40;99.90;;;;;;5053202;28;20178;-71
2020/12/13 14:12:04;;;;;;;5.87;4.40;;;10.40;99.90;;;;;;5052837;28;20924;-72
2020/12/13 14:14:30;;;;;;;8.03;4.20;;;10.30;99.90;;;;;;5062363;28;20174;-72
2020/12/13 14:16:56;;;;;;;6.23;4.40;;;10.30;99.90;;;;;;5072069;28;20252;-71
2020/12/13 14:19:22;;;;;;;5.50;4.00;;;10.20;99.90;;;;;;5072839;28;20208;-72
2020/12/13 14:21:48;;;;;;;5.00;4.20;;;10.30;99.90;;;;;;5070057;28;20444;-72
2020/12/13 14:24:14;;;;;;;8.45;5.22;;;10.20;99.90;;;;;;5070195;28;20426;-75
2020/12/13 14:26:40;;;;;;;6.60;4.70;;;10.20;99.90;;;;;;5071118;28;20202;-75
2020/12/13 14:29:07;;;;;;;7.63;4.70;;;10.20;99.90;;;;;;5072182;28;20176;-75
2020/12/13 14:31:33;;;;;;;6.70;4.43;;;10.20;99.90;;;;;;5069508;28;20432;-73
2020/12/13 14:33:58;;;;;;;9.47;4.90;;;10.20;99.90;;;;;;5071915;28;20969;-73
2020/12/13 14:36:25;;;;;;;7.07;4.50;;;10.10;99.90;;;;;;5072056;28;20614;-73
2020/12/13 14:38:51;;;;;;;8.53;4.80;;;10.10;99.90;;;;;;5071327;28;20206;-73
2020/12/13 14:41:17;;;;;;;11.57;6.60;;;10.00;99.90;;;;;;5071217;28;21483;-73
2020/12/13 14:43:44;;;;;;;11.50;6.87;;;10.00;99.90;;;;;;5071846;28;20421;-74
2020/12/13 14:46:14;;;;;;;5.10;4.23;;;9.90;99.90;;;;;;5071696;28;20283;-72
2020/12/13 14:48:40;;;;;;;11.70;6.80;;;9.90;99.90;;;;;;5071759;28;20476;-73
2020/12/13 14:51:07;;;;;;;7.87;5.03;;;9.90;99.90;;;;;;5072097;28;20429;-72
2020/12/13 14:53:33;;;;;;;9.23;5.47;;;9.90;99.90;;;;;;5071954;28;20416;-72
2020/12/13 14:56:02;;;;;;;7.10;5.47;;;9.90;99.90;;;;;;5072384;28;20421;-71
2020/12/13 14:58:27;;;;;;;8.10;4.67;;;10.00;99.90;;;;;;5072033;28;20421;-71
2020/12/13 15:00:53;;;;;;;7.27;5.43;;;10.00;99.90;;;;;;5072325;28;20421;-71
2020/12/13 15:03:18;;;;;;;8.80;4.90;;;9.90;99.90;;;;;;5072329;28;20185;-71
2020/12/13 15:05:45;;;;;;;7.80;4.83;;;9.90;99.90;;;;;;5072399;28;20240;-71
2020/12/13 15:08:12;;;;;;;8.60;5.00;;;9.90;99.90;;;;;;5072225;28;20186;-72
2020/12/13 15:10:39;;;;;;;9.33;4.73;;;9.80;99.90;;;;;;5072348;28;20435;-71
2020/12/13 15:13:16;;;;;;;7.37;5.70;;;9.80;99.90;;;;;;5072272;28;20485;-71
2020/12/13 15:16:27;;;;;;;10.20;5.60;;;9.70;99.90;;;;;;5072291;28;20911;-71
2020/12/13 15:18:35;;;;;;;6.20;4.87;;;9.60;99.90;;;;;;5071197;28;20455;-73
2020/12/13 15:21:01;;;;;;;8.60;3.77;;;9.50;99.90;;;;;;5071834;28;20523;-73
2020/12/13 15:23:27;;;;;;;9.23;5.50;;;9.40;99.90;;;;;;5068996;28;20433;-73
2020/12/13 15:25:52;;;;;;;10.40;5.33;;;9.40;99.90;;;;;;5071281;28;20483;-74
2020/12/13 15:28:18;;;;;;;6.10;4.30;;;9.30;99.90;;;;;;5071647;28;20212;-72
2020/12/13 15:30:43;;;;;;;8.37;6.57;;;9.20;99.90;;;;;;5071728;28;20202;-73
2020/12/13 15:33:09;;;;;;;7.60;5.53;;;9.20;99.90;;;;;;5071559;28;20166;-73
2020/12/13 15:35:35;;;;;;;7.00;5.60;;;9.10;99.90;;;;;;5071457;28;20197;-73
2020/12/13 15:38:01;;;;;;;11.93;9.10;;;9.00;99.90;;;;;;5071632;28;20226;-73
2020/12/13 15:40:27;;;;;;;12.10;6.30;;;9.00;99.90;;;;;;5068773;28;20440;-72
2020/12/13 15:42:53;;;;;;;8.13;5.80;;;8.90;99.90;;;;;;5071502;28;20416;-73
2020/12/13 15:45:20;;;;;;;11.63;6.35;;;8.90;99.90;;;;;;5070895;28;20427;-73
2020/12/13 15:47:45;;;;;;;9.70;6.50;;;8.90;99.90;;;;;;5074244;28;20190;-72
2020/12/13 15:50:11;;;;;;;12.17;4.60;;;8.90;99.90;;;;;;5075434;28;20907;-72
2020/12/13 15:52:37;;;;;;;5.70;4.97;;;8.90;99.90;;;;;;5075590;28;20375;-73
2020/12/13 15:55:04;;;;;;;8.43;5.73;;;8.90;99.90;;;;;;5075349;28;20627;-72
2020/12/13 15:57:29;;;;;;;7.23;5.27;;;8.90;99.90;;;;;;5075198;28;20174;-73
2020/12/13 15:59:55;;;;;;;9.40;5.47;;;8.90;99.90;;;;;;5075300;28;20454;-73
2020/12/13 16:02:21;;;;;;;10.30;4.90;;;8.90;99.90;;;;;;5075244;28;20173;-73
2020/12/13 16:04:50;;;;;;;6.20;5.07;;;9.00;99.90;;;;;;5075122;28;20195;-73
2020/12/13 16:07:23;;;;;;;8.67;5.50;;;9.00;99.90;;;;;;5075047;28;20911;-73
2020/12/13 16:09:49;;;;;;;7.93;5.10;;;9.00;99.90;;;;;;5072600;28;20437;-73
2020/12/13 16:12:14;;;;;;;12.80;6.00;;;9.00;99.90;;;;;;5074881;28;20423;-74
2020/12/13 16:14:40;;;;;;;6.77;4.83;;;9.00;99.90;;;;;;5075037;28;20175;-73
2020/12/13 16:17:06;;;;;;;7.27;5.30;;;9.00;99.90;;;;;;5074994;28;20178;-74
2020/12/13 16:19:31;;;;;;;6.60;4.43;;;9.00;99.90;;;;;;5072315;28;20861;-73
2020/12/13 16:21:57;;;;;;;6.50;4.27;;;9.00;99.90;;;;;;5074791;28;20193;-71
2020/12/13 16:24:23;;;;;;;5.43;3.63;;;9.00;99.90;;;;;;5074603;28;20291;-72
2020/12/13 16:26:50;;;;;;;6.60;3.87;;;9.00;99.90;;;;;;5075169;28;20269;-72
2020/12/13 16:29:16;;;;;;;8.30;5.87;;;9.10;99.90;;;;;;5074646;28;20174;-72
2020/12/13 16:31:41;;;;;;;9.50;5.93;;;9.10;99.90;;;;;;5075266;28;20443;-78
2020/12/13 16:34:10;;;;;;;10.23;5.40;;;9.00;99.90;;;;;;5075284;28;20228;-77
2020/12/13 16:36:41;;;;;;;8.60;6.00;;;9.10;99.90;;;;;;5075176;28;20170;-72
2020/12/13 16:39:09;;;;;;;8.97;5.20;;;9.10;99.90;;;;;;5074774;28;20427;-72
2020/12/13 16:41:40;;;;;;;11.13;5.03;;;9.00;99.90;;;;;;5075003;28;20848;-73
2020/12/13 16:46:42;;;;;;;6.80;4.83;;;8.90;99.90;;;;;;5074266;28;20594;-72
2020/12/13 16:49:39;;;;;;;6.80;4.80;;;8.90;99.90;;;;;;5074094;28;20166;-72
2020/12/13 16:54:18;;;;;;;7.73;5.57;;;8.80;99.90;;;;;;5071412;28;20788;-72
2020/12/13 16:56:46;;;;;;;10.50;5.47;;;8.80;99.90;;;;;;5074050;28;20592;-72
2020/12/13 16:59:12;;;;;;;5.70;5.10;;;8.80;99.90;;;;;;5073927;28;20189;-72
2020/12/13 17:01:39;;;;;;;6.00;5.30;;;8.80;99.90;;;;;;5074662;28;20428;-73
2020/12/13 17:04:05;;;;;;;7.70;5.17;;;8.80;99.90;;;;;;5074553;28;20215;-72
2020/12/13 17:06:32;;;;;;;6.20;5.50;;;8.80;99.90;;;;;;5074491;28;20515;-72
2020/12/13 17:08:58;;;;;;;7.60;5.97;;;8.80;99.90;;;;;;5074449;28;20630;-71
2020/12/13 17:11:24;;;;;;;6.33;4.63;;;8.80;99.90;;;;;;5074390;28;20469;-71
2020/12/13 17:13:50;;;;;;;5.30;4.40;;;8.70;99.90;;;;;;5074590;28;20444;-72
2020/12/13 17:16:15;;;;;;;7.73;4.90;;;8.70;99.90;;;;;;5074166;28;20220;-71
2020/12/13 17:18:42;;;;;;;8.20;4.50;;;8.70;99.90;;;;;;5074449;28;20179;-72
2020/12/13 17:21:09;;;;;;;4.93;4.40;;;8.70;99.90;;;;;;5074329;28;20632;-71
2020/12/13 17:23:36;;;;;;;5.97;4.40;;;8.70;99.90;;;;;;5074212;28;20436;-72
2020/12/13 17:26:06;;;;;;;9.93;4.60;;;8.70;99.90;;;;;;5073918;28;20484;-71
2020/12/13 17:28:32;;;;;;;4.60;4.10;;;8.70;99.90;;;;;;5074012;28;20959;-72
2020/12/13 17:30:57;;;;;;;12.00;4.80;;;8.60;99.90;;;;;;5074124;28;20515;-72
2020/12/13 17:33:23;;;;;;;6.67;4.57;;;8.60;99.90;;;;;;5074045;28;20317;-71
2020/12/13 17:35:51;;;;;;;8.17;4.13;;;8.70;99.90;;;;;;5073964;28;20206;-71
2020/12/13 17:38:16;;;;;;;5.40;3.73;;;8.60;99.90;;;;;;5073673;28;20181;-75
2020/12/13 17:40:42;;;;;;;6.10;3.53;;;8.60;99.90;;;;;;5073998;28;20935;-74